createdAt,value
2018-01-15T00:01:32.150Z,1.60
2018-01-15T00:04:00.462Z,1.65
2018-01-15T00:06:29.563Z,1.56
2018-01-15T00:08:57.905Z,1.54
2018-01-15T00:11:26.226Z,1.44
2018-01-15T00:13:55.316Z,1.43
2018-01-15T00:16:23.646Z,1.44
2018-01-15T00:18:51.970Z,1.47
2018-01-15T00:21:21.078Z,1.38
2018-01-15T00:23:50.176Z,1.36
2018-01-15T00:26:18.521Z,1.33
2018-01-15T00:28:46.864Z,1.32
2018-01-15T00:31:15.207Z,1.24
2018-01-15T00:33:43.541Z,1.31
2018-01-15T00:36:11.887Z,1.22
2018-01-15T00:38:40.228Z,1.25
2018-01-15T00:41:09.330Z,1.29
2018-01-15T00:43:37.670Z,1.28
2018-01-15T00:46:05.985Z,1.20
2018-01-15T00:48:35.057Z,1.14
2018-01-15T00:51:03.384Z,1.12
2018-01-15T00:53:32.520Z,1.11
2018-01-15T00:56:00.878Z,1.08
2018-01-15T00:58:29.198Z,0.94
2018-01-15T01:00:57.553Z,0.86
2018-01-15T01:03:25.899Z,0.80
2018-01-15T01:05:54.224Z,0.84
2018-01-15T01:08:23.377Z,0.87
2018-01-15T01:10:51.689Z,0.93
2018-01-15T01:13:20.017Z,0.84
2018-01-15T01:15:48.350Z,0.79
2018-01-15T01:18:16.672Z,0.77
2018-01-15T01:20:45.020Z,0.45
2018-01-15T01:23:13.354Z,0.43
2018-01-15T01:25:41.695Z,0.40
2018-01-15T01:28:10.033Z,0.43
2018-01-15T01:30:38.379Z,0.45
2018-01-15T01:33:06.722Z,0.43
2018-01-15T01:35:35.850Z,0.39
2018-01-15T01:38:04.174Z,0.51
2018-01-15T01:40:32.532Z,0.53
2018-01-15T01:43:00.869Z,0.54
2018-01-15T01:45:29.201Z,0.51
2018-01-15T01:47:57.529Z,0.53
2018-01-15T01:50:25.858Z,0.59
2018-01-15T01:52:54.195Z,0.57
2018-01-15T01:55:22.539Z,0.49
2018-01-15T01:57:50.870Z,0.46
2018-01-15T02:00:19.210Z,0.48
2018-01-15T02:02:47.545Z,0.39
2018-01-15T02:05:15.883Z,0.45
2018-01-15T02:07:44.211Z,0.44
2018-01-15T02:10:12.535Z,0.52
2018-01-15T02:12:40.861Z,0.47
2018-01-15T02:15:09.973Z,0.45
2018-01-15T02:17:38.309Z,0.50
2018-01-15T02:20:06.688Z,0.43
2018-01-15T02:22:35.033Z,0.57
2018-01-15T02:25:03.372Z,0.59
2018-01-15T02:27:31.689Z,0.49
2018-01-15T02:30:00.027Z,0.58
2018-01-15T02:32:29.149Z,0.72
2018-01-15T02:34:57.489Z,0.87
2018-01-15T02:37:25.812Z,1.01
2018-01-15T02:39:55.372Z,1.08
2018-01-15T02:42:23.696Z,1.09
2018-01-15T02:44:52.036Z,1.25
2018-01-15T02:47:20.376Z,1.30
2018-01-15T02:49:48.715Z,1.45
2018-01-15T02:52:17.047Z,1.47
2018-01-15T02:54:45.370Z,1.35
2018-01-15T02:57:13.700Z,1.44
2018-01-15T02:59:42.026Z,1.41
2018-01-15T03:02:10.373Z,1.30
2018-01-15T03:04:38.690Z,1.43
2018-01-15T03:07:07.033Z,1.40
2018-01-15T03:09:36.521Z,1.26
2018-01-15T03:12:04.858Z,1.37
2018-01-15T03:14:33.182Z,1.28
2018-01-15T03:17:01.506Z,1.31
2018-01-15T03:19:29.831Z,1.13
2018-01-15T03:21:58.150Z,1.13
2018-01-15T03:24:26.480Z,1.19
2018-01-15T03:26:54.879Z,1.07
2018-01-15T03:29:23.981Z,1.22
2018-01-15T03:31:52.311Z,1.31
2018-01-15T03:34:20.634Z,1.39
2018-01-15T03:36:49.726Z,1.39
2018-01-15T03:39:18.910Z,1.53
2018-01-15T03:41:47.424Z,1.52
2018-01-15T03:44:15.742Z,1.59
2018-01-15T03:46:44.062Z,1.62
2018-01-15T03:49:13.151Z,1.64
2018-01-15T03:51:42.255Z,1.51
2018-01-15T03:54:10.580Z,1.56
2018-01-15T03:56:38.906Z,1.41
2018-01-15T03:59:07.999Z,1.09
2018-01-15T04:01:36.345Z,1.12
2018-01-15T04:04:04.678Z,1.16
2018-01-15T04:06:33.006Z,1.32
2018-01-15T04:09:02.284Z,1.26
2018-01-15T04:11:30.627Z,1.28
2018-01-15T04:13:59.718Z,1.30
2018-01-15T04:16:28.042Z,1.04
2018-01-15T04:18:57.168Z,1.21
2018-01-15T04:21:25.497Z,1.19
2018-01-15T04:23:53.826Z,1.39
2018-01-15T04:26:22.170Z,1.44
2018-01-15T04:28:50.529Z,1.31
2018-01-15T04:31:18.862Z,1.42
2018-01-15T04:33:47.972Z,1.44
2018-01-15T04:36:16.308Z,1.33
2018-01-15T04:38:44.746Z,1.36
2018-01-15T04:41:13.169Z,1.48
2018-01-15T04:43:41.512Z,1.28
2018-01-15T04:46:09.834Z,1.24
2018-01-15T04:48:38.162Z,1.07
2018-01-15T04:51:06.493Z,1.13
2018-01-15T04:53:34.822Z,1.30
2018-01-15T04:56:03.150Z,1.22
2018-01-15T04:58:31.474Z,1.25
2018-01-15T05:00:59.794Z,1.31
2018-01-15T05:03:29.651Z,1.32
2018-01-15T05:05:57.974Z,1.41
2018-01-15T05:08:26.290Z,1.30
2018-01-15T05:10:55.392Z,1.35
2018-01-15T05:13:24.492Z,1.50
2018-01-15T05:15:52.830Z,1.41
2018-01-15T05:18:21.208Z,1.40
2018-01-15T05:20:49.555Z,1.43
2018-01-15T05:23:17.877Z,1.44
2018-01-15T05:25:46.206Z,1.55
2018-01-15T05:28:14.538Z,1.57
2018-01-15T05:30:42.889Z,1.55
2018-01-15T05:33:11.221Z,1.55
2018-01-15T05:35:39.549Z,1.48
2018-01-15T05:38:07.887Z,1.19
2018-01-15T05:40:36.223Z,1.77
2018-01-15T05:43:05.306Z,1.67
2018-01-15T05:45:33.629Z,1.85
2018-01-15T05:48:01.964Z,1.71
2018-01-15T05:50:30.320Z,1.68
2018-01-15T05:52:58.664Z,1.49
2018-01-15T05:55:26.996Z,1.51
2018-01-15T05:57:55.326Z,1.55
2018-01-15T06:00:23.679Z,1.39
2018-01-15T06:02:52.048Z,1.26
2018-01-15T06:05:20.356Z,1.24
2018-01-15T06:07:48.677Z,1.40
2018-01-15T06:10:17.010Z,1.46
2018-01-15T06:12:45.336Z,1.59
2018-01-15T06:15:13.674Z,1.71
2018-01-15T06:17:41.998Z,1.73
2018-01-15T06:20:10.337Z,1.78
2018-01-15T06:22:38.668Z,1.71
2018-01-15T06:25:07.776Z,1.53
2018-01-15T06:27:36.098Z,1.61
2018-01-15T06:30:04.458Z,1.64
2018-01-15T06:32:32.787Z,1.50
2018-01-15T06:35:03.135Z,1.67
2018-01-15T06:37:31.454Z,1.76
2018-01-15T06:39:59.788Z,1.76
2018-01-15T06:42:28.106Z,1.77
2018-01-15T06:44:56.426Z,1.47
2018-01-15T06:47:24.777Z,1.44
2018-01-15T06:49:53.118Z,1.31
2018-01-15T06:52:21.453Z,1.49
2018-01-15T06:54:49.800Z,1.62
2018-01-15T06:57:18.134Z,1.71
2018-01-15T06:59:46.464Z,1.75
2018-01-15T07:02:15.059Z,1.67
2018-01-15T07:04:43.400Z,1.71
2018-01-15T07:07:11.705Z,1.66
2018-01-15T07:09:40.038Z,1.65
2018-01-15T07:12:08.370Z,1.73
2018-01-15T07:14:36.706Z,1.85
2018-01-15T07:17:05.039Z,1.91
2018-01-15T07:19:33.366Z,1.71
2018-01-15T07:22:01.690Z,1.84
2018-01-15T07:24:30.774Z,1.92
2018-01-15T07:26:59.085Z,2.04
2018-01-15T07:29:27.404Z,2.10
2018-01-15T07:31:55.747Z,2.07
2018-01-15T07:34:24.084Z,2.14
2018-01-15T07:36:52.424Z,2.20
2018-01-15T07:39:20.747Z,2.23
2018-01-15T07:41:49.123Z,2.17
2018-01-15T07:44:17.451Z,2.24
2018-01-15T07:46:45.793Z,2.25
2018-01-15T07:49:14.119Z,2.22
2018-01-15T07:51:42.444Z,2.26
2018-01-15T07:54:11.510Z,2.05
2018-01-15T07:56:39.853Z,2.08
2018-01-15T07:59:08.192Z,2.06
2018-01-15T08:01:37.290Z,2.13
2018-01-15T08:04:05.712Z,2.07
2018-01-15T08:06:34.042Z,2.03
2018-01-15T08:09:02.380Z,1.98
2018-01-15T08:11:30.710Z,2.16
2018-01-15T08:13:59.846Z,2.08
2018-01-15T08:16:28.189Z,2.24
2018-01-15T08:18:56.514Z,2.30
2018-01-15T08:21:24.855Z,2.34
2018-01-15T08:23:54.107Z,2.21
2018-01-15T08:26:22.434Z,2.07
2018-01-15T08:28:50.770Z,2.18
2018-01-15T08:31:19.105Z,2.03
2018-01-15T08:33:47.435Z,1.87
2018-01-15T08:36:16.530Z,1.94
2018-01-15T08:38:44.854Z,1.95
2018-01-15T08:41:13.173Z,2.10
2018-01-15T08:43:41.882Z,2.12
2018-01-15T08:46:10.207Z,2.15
2018-01-15T08:48:38.529Z,2.12
2018-01-15T08:51:07.655Z,1.97
2018-01-15T08:53:35.971Z,2.13
2018-01-15T08:56:04.316Z,2.19
2018-01-15T08:58:32.705Z,2.19
2018-01-15T09:01:01.038Z,2.11
2018-01-15T09:03:30.300Z,2.02
2018-01-15T09:05:58.646Z,2.10
2018-01-15T09:08:26.962Z,2.07
2018-01-15T09:10:55.291Z,2.08
2018-01-15T09:13:23.624Z,2.04
2018-01-15T09:15:51.975Z,2.01
2018-01-15T09:18:20.298Z,2.01
2018-01-15T09:20:49.437Z,2.12
2018-01-15T09:23:17.777Z,2.02
2018-01-15T09:25:46.093Z,2.08
2018-01-15T09:28:14.405Z,2.19
2018-01-15T09:30:42.743Z,2.18
2018-01-15T09:33:11.769Z,2.37
2018-01-15T09:35:41.649Z,2.43
2018-01-15T09:38:09.996Z,2.52
2018-01-15T09:40:38.331Z,2.51
2018-01-15T09:43:06.681Z,2.50
2018-01-15T09:45:35.023Z,2.62
2018-01-15T09:48:03.366Z,2.71
2018-01-15T09:50:31.712Z,2.58
2018-01-15T09:53:00.053Z,2.59
2018-01-15T09:55:29.238Z,2.64
2018-01-15T09:57:57.558Z,2.67
2018-01-15T10:00:25.940Z,2.63
2018-01-15T10:02:54.292Z,2.53
2018-01-15T10:05:22.621Z,2.57
2018-01-15T10:07:50.940Z,2.55
2018-01-15T10:10:20.038Z,2.72
2018-01-15T10:12:48.659Z,2.65
2018-01-15T10:15:17.000Z,2.76
2018-01-15T10:17:46.102Z,2.79
2018-01-15T10:20:14.454Z,2.79
2018-01-15T10:22:42.776Z,2.86
2018-01-15T10:25:12.464Z,2.88
2018-01-15T10:27:40.806Z,2.93
2018-01-15T10:30:09.143Z,3.07
2018-01-15T10:32:37.450Z,2.98
2018-01-15T10:35:05.766Z,3.03
2018-01-15T10:37:34.104Z,3.15
2018-01-15T10:40:02.430Z,3.14
2018-01-15T10:42:31.575Z,3.21
2018-01-15T10:44:59.921Z,3.25
2018-01-15T10:47:28.305Z,3.25
2018-01-15T10:49:56.643Z,3.09
2018-01-15T10:52:24.991Z,3.06
2018-01-15T10:54:53.547Z,2.99
2018-01-15T10:57:22.732Z,3.14
2018-01-15T10:59:51.077Z,3.15
2018-01-15T11:02:19.395Z,3.27
2018-01-15T11:04:47.727Z,3.13
2018-01-15T11:07:16.054Z,3.11
2018-01-15T11:09:44.382Z,2.86
2018-01-15T11:12:12.702Z,3.07
2018-01-15T11:14:41.086Z,3.11
2018-01-15T11:17:09.545Z,3.12
2018-01-15T11:22:06.087Z,3.28
2018-01-15T11:24:34.424Z,3.21
2018-01-15T11:27:02.763Z,3.19
2018-01-15T11:29:31.114Z,3.16
2018-01-15T11:32:00.219Z,3.10
2018-01-15T11:34:29.169Z,2.85
2018-01-15T11:36:57.508Z,2.96
2018-01-15T11:39:26.575Z,2.99
2018-01-15T11:41:54.914Z,2.74
2018-01-15T11:44:23.246Z,2.57
2018-01-15T11:46:51.592Z,2.82
2018-01-15T11:49:19.940Z,2.84
2018-01-15T11:51:48.276Z,2.86
2018-01-15T11:54:16.629Z,2.78
2018-01-15T11:56:45.206Z,2.96
2018-01-15T11:59:13.530Z,2.77
2018-01-15T12:01:41.868Z,2.70
2018-01-15T12:04:10.966Z,2.84
2018-01-15T12:06:40.068Z,2.59
2018-01-15T12:09:08.399Z,2.80
2018-01-15T12:11:36.755Z,2.65
2018-01-15T12:14:05.090Z,2.86
2018-01-15T12:16:33.425Z,2.74
2018-01-15T12:19:01.756Z,2.84
2018-01-15T12:21:30.090Z,2.94
2018-01-15T12:23:58.406Z,2.86
2018-01-15T12:26:26.746Z,2.81
2018-01-15T12:28:55.105Z,2.95
2018-01-15T12:31:23.416Z,2.91
2018-01-15T12:33:51.751Z,2.86
2018-01-15T12:36:20.116Z,2.92
2018-01-15T12:38:48.462Z,3.01
2018-01-15T12:41:16.800Z,3.02
2018-01-15T12:43:45.152Z,3.04
2018-01-15T12:46:13.490Z,3.07
2018-01-15T12:48:41.836Z,3.15
2018-01-15T12:51:10.990Z,3.01
2018-01-15T12:53:40.854Z,3.11
2018-01-15T12:56:09.201Z,3.15
2018-01-15T12:58:37.536Z,3.19
2018-01-15T13:01:05.985Z,3.27
2018-01-15T13:03:41.209Z,3.19
2018-01-15T13:06:11.043Z,3.17
2018-01-15T13:11:42.830Z,3.09
2018-01-15T13:14:11.179Z,3.16
2018-01-15T13:16:41.804Z,3.16
2018-01-15T13:19:10.127Z,3.21
2018-01-15T13:21:38.457Z,3.24
2018-01-15T13:24:06.795Z,3.26
2018-01-15T13:26:35.182Z,3.30
2018-01-15T13:29:03.515Z,3.33
2018-01-15T13:31:31.877Z,3.32
2018-01-15T13:34:01.146Z,3.31
2018-01-15T13:36:29.488Z,3.12
2018-01-15T13:38:57.830Z,3.22
2018-01-15T13:41:26.186Z,3.29
2018-01-15T13:43:54.524Z,3.24
2018-01-15T13:46:22.880Z,3.31
2018-01-15T13:48:51.239Z,3.21
2018-01-15T13:51:19.579Z,3.32
2018-01-15T13:53:47.914Z,3.33
2018-01-15T13:56:16.234Z,3.24
2018-01-15T13:58:44.572Z,3.31
2018-01-15T14:01:12.950Z,3.31
2018-01-15T14:03:41.284Z,3.29
2018-01-15T14:06:09.606Z,3.32
2018-01-15T14:08:37.956Z,3.30
2018-01-15T14:11:06.298Z,3.35
2018-01-15T14:13:34.639Z,3.42
2018-01-15T14:16:02.973Z,3.46
2018-01-15T14:18:31.299Z,3.45
2018-01-15T14:21:00.160Z,3.47
2018-01-15T14:23:28.474Z,3.63
2018-01-15T14:25:56.816Z,3.77
2018-01-15T14:28:26.050Z,3.94
2018-01-15T14:30:54.379Z,3.97
2018-01-15T14:33:22.729Z,3.85
2018-01-15T14:35:51.088Z,3.72
2018-01-15T14:38:19.467Z,3.77
2018-01-15T14:40:47.834Z,3.82
2018-01-15T14:43:16.154Z,3.80
2018-01-15T14:45:45.408Z,3.82
2018-01-15T14:48:13.753Z,3.81
2018-01-15T14:50:42.096Z,3.68
2018-01-15T14:53:10.436Z,3.82
2018-01-15T14:55:38.780Z,3.77
2018-01-15T14:58:07.993Z,3.91
2018-01-15T15:00:36.324Z,3.90
2018-01-15T15:03:04.669Z,3.91
2018-01-15T15:05:32.990Z,3.95
2018-01-15T15:08:01.344Z,4.02
2018-01-15T15:10:30.363Z,4.01
2018-01-15T15:12:59.259Z,3.89
2018-01-15T15:15:27.612Z,3.98
2018-01-15T15:17:56.720Z,3.94
2018-01-15T15:20:25.078Z,3.88
2018-01-15T15:22:53.403Z,3.88
2018-01-15T15:25:21.735Z,3.89
2018-01-15T15:27:50.081Z,4.02
2018-01-15T15:30:18.420Z,4.00
2018-01-15T15:32:46.761Z,4.03
2018-01-15T15:35:15.091Z,4.01
2018-01-15T15:37:43.475Z,3.99
2018-01-15T15:40:11.810Z,4.03
2018-01-15T15:42:40.155Z,3.92
2018-01-15T15:45:08.498Z,3.98
2018-01-15T15:47:36.814Z,4.01
2018-01-15T15:50:05.134Z,3.97
2018-01-15T15:52:33.484Z,3.93
2018-01-15T15:55:01.821Z,3.93
2018-01-15T15:57:30.141Z,3.75
2018-01-15T15:59:58.472Z,3.78
2018-01-15T16:02:26.816Z,3.74
2018-01-15T16:04:55.926Z,3.78
2018-01-15T16:07:24.269Z,3.77
2018-01-15T16:09:52.602Z,3.78
2018-01-15T16:12:20.938Z,3.79
2018-01-15T16:14:50.030Z,3.78
2018-01-15T16:17:18.386Z,3.80
2018-01-15T16:19:46.722Z,3.86
2018-01-15T16:22:34.670Z,3.80
2018-01-15T16:25:03.034Z,3.75
2018-01-15T16:27:31.370Z,3.77
2018-01-15T16:29:59.693Z,3.80
2018-01-15T16:32:28.071Z,3.87
2018-01-15T16:34:56.427Z,3.82
2018-01-15T16:37:24.789Z,3.89
2018-01-15T16:39:53.147Z,3.93
2018-01-15T16:42:21.492Z,3.88
2018-01-15T16:44:49.832Z,3.90
2018-01-15T16:47:18.958Z,3.95
2018-01-15T16:49:47.300Z,3.94
2018-01-15T16:52:15.638Z,3.90
2018-01-15T16:54:43.967Z,3.87
2018-01-15T16:57:12.335Z,3.97
2018-01-15T16:59:41.450Z,4.06
2018-01-15T17:02:09.845Z,4.07
2018-01-15T17:04:38.186Z,4.06
2018-01-15T17:07:06.535Z,4.02
2018-01-15T17:09:34.880Z,4.00
2018-01-15T17:12:03.218Z,4.24
2018-01-15T17:14:32.311Z,4.17
2018-01-15T17:17:00.672Z,4.17
2018-01-15T17:19:29.010Z,4.09
2018-01-15T17:21:57.325Z,4.24
2018-01-15T17:24:25.657Z,4.33
2018-01-15T17:26:53.991Z,4.34
2018-01-15T17:29:22.379Z,4.32
2018-01-15T17:31:50.762Z,4.42
2018-01-15T17:34:19.110Z,4.47
2018-01-15T17:36:47.447Z,4.42
2018-01-15T17:39:15.775Z,4.36
2018-01-15T17:41:44.185Z,4.45
2018-01-15T17:44:12.562Z,4.47
2018-01-15T17:46:41.375Z,4.42
2018-01-15T17:49:09.992Z,4.42
2018-01-15T17:51:39.741Z,4.44
2018-01-15T17:54:09.224Z,4.56
2018-01-15T17:56:39.367Z,4.53
2018-01-15T17:59:08.433Z,4.59
2018-01-15T18:01:38.220Z,4.66
2018-01-15T18:04:07.780Z,4.71
2018-01-15T18:06:37.220Z,4.76
2018-01-15T18:09:07.091Z,4.80
2018-01-15T18:11:36.663Z,4.81
2018-01-15T18:14:06.471Z,4.63
2018-01-15T18:16:36.348Z,4.60
2018-01-15T18:19:06.952Z,4.42
2018-01-15T18:21:36.468Z,4.40
2018-01-15T18:24:06.066Z,4.32
2018-01-15T18:26:35.887Z,4.37
2018-01-15T18:29:05.377Z,4.46
2018-01-15T18:31:35.200Z,4.35
2018-01-15T18:34:05.738Z,4.43
2018-01-15T18:36:36.277Z,4.34
2018-01-15T18:39:06.989Z,4.38
2018-01-15T18:41:37.395Z,4.26
2018-01-15T18:44:07.223Z,4.32
2018-01-15T18:46:37.002Z,4.17
2018-01-15T18:49:06.793Z,4.21
2018-01-15T18:51:37.015Z,4.27
2018-01-15T18:54:07.543Z,4.21
2018-01-15T18:56:37.607Z,4.13
2018-01-15T18:59:07.440Z,4.00
2018-01-15T19:01:37.386Z,4.21
2018-01-15T19:04:07.217Z,4.29
2018-01-15T19:06:37.056Z,4.35
2018-01-15T19:09:07.048Z,4.14
2018-01-15T19:11:36.967Z,4.17
2018-01-15T19:14:06.918Z,4.17
2018-01-15T19:16:36.842Z,4.22
2018-01-15T19:19:06.757Z,4.24
2018-01-15T19:21:36.637Z,4.18
2018-01-15T19:24:07.401Z,4.25
2018-01-15T19:26:38.254Z,4.36
2018-01-15T19:29:08.385Z,4.29
2018-01-15T19:31:38.445Z,4.31
2018-01-15T19:34:08.524Z,4.15
2018-01-15T19:36:40.103Z,4.16
2018-01-15T19:39:10.673Z,4.21
2018-01-15T19:41:40.790Z,4.20
2018-01-15T19:47:23.538Z,4.13
2018-01-15T19:49:59.616Z,4.14
2018-01-15T19:52:34.965Z,4.23
2018-01-15T19:55:10.166Z,4.37
2018-01-15T19:57:45.527Z,4.26
2018-01-15T20:00:20.779Z,4.22
2018-01-15T20:02:56.054Z,4.26
2018-01-15T20:05:31.417Z,4.27
2018-01-15T20:08:06.700Z,4.32
2018-01-15T20:10:42.117Z,4.35
2018-01-15T20:13:12.144Z,4.22
2018-01-15T20:15:43.617Z,4.33
2018-01-15T20:18:13.564Z,4.26
2018-01-15T20:20:43.383Z,4.35
2018-01-15T20:23:13.415Z,4.36
2018-01-15T20:25:43.297Z,4.33
2018-01-15T20:28:13.345Z,4.35
2018-01-15T20:30:43.289Z,4.43
2018-01-15T20:33:13.242Z,4.36
2018-01-15T20:35:43.040Z,4.33
2018-01-15T20:38:13.038Z,4.41
2018-01-15T20:40:43.103Z,4.40
2018-01-15T20:43:13.674Z,4.39
2018-01-15T20:45:44.325Z,4.44
2018-01-15T20:48:14.302Z,4.47
2018-01-15T20:50:44.703Z,4.35
2018-01-15T20:53:14.556Z,4.46
2018-01-15T20:55:45.949Z,4.44
2018-01-15T20:58:15.849Z,4.47
2018-01-15T21:00:45.727Z,4.49
2018-01-15T21:03:15.725Z,4.53
2018-01-15T21:05:46.325Z,4.57
2018-01-15T21:08:17.180Z,4.52
2018-01-15T21:10:47.231Z,4.38
2018-01-15T21:13:21.000Z,4.52
2018-01-15T21:15:50.856Z,4.52
2018-01-15T21:18:21.596Z,4.54
2018-01-15T21:20:51.470Z,4.65
2018-01-15T21:23:21.436Z,4.62
2018-01-15T21:25:51.346Z,4.57
2018-01-15T21:28:21.214Z,4.45
2018-01-15T21:30:51.083Z,4.55
2018-01-15T21:33:22.413Z,4.55
2018-01-15T21:35:53.032Z,4.53
2018-01-15T21:38:23.130Z,4.59
2018-01-15T21:40:53.045Z,4.45
2018-01-15T21:43:22.923Z,4.63
2018-01-15T21:45:52.803Z,4.64
2018-01-15T21:48:22.781Z,4.76
2018-01-15T21:50:52.629Z,4.65
2018-01-15T21:53:23.758Z,4.73
2018-01-15T21:55:54.651Z,4.81
2018-01-15T21:58:24.510Z,4.81
2018-01-15T22:00:54.211Z,4.83
2018-01-15T22:03:24.026Z,4.90
2018-01-15T22:05:53.852Z,4.92
2018-01-15T22:08:23.732Z,5.02
2018-01-15T22:10:53.870Z,5.09
2018-01-15T22:13:23.692Z,5.06
2018-01-15T22:15:55.433Z,5.08
2018-01-15T22:18:25.290Z,4.99
2018-01-15T22:20:54.853Z,5.04
2018-01-15T22:23:25.453Z,4.95
2018-01-15T22:25:54.757Z,4.94
2018-01-15T22:28:23.441Z,4.95
2018-01-15T22:30:53.816Z,5.07
2018-01-15T22:33:22.274Z,5.04
2018-01-15T22:35:51.419Z,5.02
2018-01-15T22:38:19.756Z,5.03
2018-01-15T22:40:48.101Z,5.14
2018-01-15T22:43:16.451Z,4.93
2018-01-15T22:45:44.775Z,5.02
2018-01-15T22:48:13.122Z,4.97
2018-01-15T22:50:41.454Z,4.93
2018-01-15T22:53:09.778Z,4.93
2018-01-15T22:55:38.103Z,4.81
2018-01-15T22:58:06.425Z,5.04
2018-01-15T23:00:34.752Z,4.97
2018-01-15T23:03:03.857Z,4.95
2018-01-15T23:05:32.177Z,4.86
2018-01-15T23:08:00.518Z,5.02
2018-01-15T23:10:28.883Z,4.90
2018-01-15T23:12:57.241Z,4.94
2018-01-15T23:15:25.604Z,5.06
2018-01-15T23:17:54.061Z,4.98
2018-01-15T23:20:22.394Z,4.98
2018-01-15T23:22:51.498Z,4.95
2018-01-15T23:25:19.849Z,4.90
2018-01-15T23:27:48.191Z,4.93
2018-01-15T23:30:16.528Z,4.98
2018-01-15T23:32:45.630Z,5.00
2018-01-15T23:35:13.977Z,4.92
2018-01-15T23:37:42.328Z,4.94
2018-01-15T23:40:10.663Z,4.83
2018-01-15T23:42:39.764Z,4.97
2018-01-15T23:45:08.101Z,5.01
2018-01-15T23:47:36.451Z,5.04
2018-01-15T23:50:05.227Z,5.00
2018-01-15T23:52:33.573Z,5.12
2018-01-15T23:55:02.676Z,5.18
2018-01-15T23:57:31.785Z,5.23
